Crystal Island — 3EZJ3 — position and weather

sailwx.info

Track history (hours):
 
Tides and Currents Weather Stations Pressure Air Temp Water Temp Dewpoint Dewpoint Depression Visibility Wind Speed Wind Dir Waves Ship Positions

Crystal Island

Last reported at 2016-Nov-14 05:33 UTC. Time now 2016-Dec-08 22:08 UTC.
Position N 38°29' E 121°04'.
Warning: this ship's position is 24 days out of date.

Length 169 m; draft 8.7 m.

Type: Ship. MMSI: 372562000.

Date/timePositionNaut miles runAvg speedWind from/ knotsBaromVisibWave heightAir tempDewpointWater temp
2016-Nov-14 05:33N 38°29' E 121°04'14712.0
2016-Nov-13 17:17N 38°56' E 117°60'11 5.6
2016-Nov-13 15:22N 38°58' E 117°46'0 0.0
2016-Nov-13 13:28N 38°58' E 117°46'0 0.0
2016-Nov-13 10:28N 38°58' E 117°46'0 0.0
2016-Nov-13 08:28N 38°58' E 117°46'0 0.0
2016-Nov-13 05:28N 38°58' E 117°46'0 0.0
2016-Nov-13 03:28N 38°58' E 117°46'0 0.0
2016-Nov-12 23:22N 38°58' E 117°46'0 0.0
2016-Nov-12 21:28N 38°58' E 117°46'0 0.0
2016-Nov-12 19:28N 38°58' E 117°46'0 0.0
2016-Nov-12 17:28N 38°58' E 117°46'0 0.0
2016-Nov-12 16:28N 38°58' E 117°46'0 0.0
2016-Nov-12 15:28N 38°58' E 117°46'0 0.0
2016-Nov-12 14:22N 38°58' E 117°46'0 0.0
2016-Nov-12 13:10N 38°58' E 117°46'0 0.0
2016-Nov-12 12:28N 38°58' E 117°46'0 0.0
2016-Nov-12 11:33N 38°58' E 117°46'10 5.0
2016-Nov-12 09:32N 38°57' E 117°59'5 0.7
2016-Nov-12 02:25N 38°54' E 118°05'0 0.0
2016-Nov-12 00:25N 38°54' E 118°05'0 0.0
2016-Nov-11 23:19N 38°54' E 118°05'0 0.0
2016-Nov-11 10:07N 38°54' E 118°05'0 0.0
2016-Nov-11 09:25N 38°54' E 118°05'2 0.1
2016-Nov-10 06:17N 38°55' E 118°02'0 0.1
2016-Nov-10 05:29N 38°55' E 118°02'0 0.0
2016-Nov-09 08:05N 38°55' E 118°02'0 0.0
2016-Nov-09 05:29N 38°55' E 118°02'0 0.0
2016-Nov-09 04:29N 38°55' E 118°02'0 0.0
2016-Nov-09 02:29N 38°55' E 118°02'0 0.0
2016-Nov-08 23:17N 38°55' E 118°02'0 0.0
2016-Nov-08 22:23N 38°55' E 118°02'0 0.0
2016-Nov-08 17:23N 38°55' E 118°02'0 0.0
2016-Nov-07 19:29N 38°55' E 118°02'0 0.0
2016-Nov-07 17:29N 38°55' E 118°02'0 0.0
2016-Nov-07 16:23N 38°55' E 118°02'0 0.0
2016-Nov-07 05:05N 38°55' E 118°02'0 0.0
2016-Nov-06 07:14N 38°55' E 118°02'14 1.8
2016-Nov-05 23:30N 38°59' E 117°45'0 0.0
2016-Nov-05 20:42N 38°59' E 117°45'0 0.0
2016-Nov-05 20:30N 38°59' E 117°45'0 0.0
2016-Nov-05 16:06N 38°59' E 117°45'0 0.0
2016-Nov-05 12:24N 38°59' E 117°45'0 0.0
2016-Nov-05 11:30N 38°59' E 117°45'0 0.0
2016-Nov-05 10:24N 38°59' E 117°45'0 0.0
2016-Nov-05 09:30N 38°59' E 117°45'0 0.0
2016-Nov-05 08:30N 38°59' E 117°45'0 0.0
2016-Nov-05 07:24N 38°59' E 117°45'0 0.0
2016-Nov-05 04:30N 38°59' E 117°45'0 0.0
2016-Nov-05 02:24N 38°59' E 117°45'0 0.0
2016-Nov-05 01:30N 38°59' E 117°45'0 0.0
2016-Nov-04 23:18N 38°59' E 117°45'0 0.0
2016-Nov-04 22:30N 38°59' E 117°45'0 0.0
2016-Nov-04 21:24N 38°59' E 117°45'0 0.0
2016-Nov-04 20:30N 38°59' E 117°45'0 0.0
2016-Nov-04 18:30N 38°59' E 117°45'0 0.0
2016-Nov-04 16:30N 38°59' E 117°45'0 0.0
2016-Nov-04 14:30N 38°59' E 117°45'0 0.0
2016-Nov-04 12:18N 38°59' E 117°45'0 0.0
2016-Nov-04 08:30N 38°59' E 117°45'0 0.0
2016-Nov-04 07:30N 38°59' E 117°45'0 0.0
2016-Nov-04 06:30N 38°59' E 117°45'  
Track history (hours):
 
Tides and Currents Weather Stations Pressure Air Temp Water Temp Dewpoint Dewpoint Depression Visibility Wind Speed Wind Dir Waves Ship Positions

Crystal Island

Last reported at 2016-Nov-14 05:33 UTC. Time now 2016-Dec-08 22:08 UTC.
Position N 38°29' E 121°04'.
Warning: this ship's position is 24 days out of date.

Length 169 m; draft 8.7 m.

Type: Ship. MMSI: 372562000.

Date/timePositionNaut miles runAvg speedWind from/ knotsBaromVisibWave heightAir tempDewpointWater temp
2016-Nov-14 05:33N 38°29' E 121°04'14712.0
2016-Nov-13 17:17N 38°56' E 117°60'11 5.6
2016-Nov-13 15:22N 38°58' E 117°46'0 0.0
2016-Nov-13 13:28N 38°58' E 117°46'0 0.0
2016-Nov-13 10:28N 38°58' E 117°46'0 0.0
2016-Nov-13 08:28N 38°58' E 117°46'0 0.0
2016-Nov-13 05:28N 38°58' E 117°46'0 0.0
2016-Nov-13 03:28N 38°58' E 117°46'0 0.0
2016-Nov-12 23:22N 38°58' E 117°46'0 0.0
2016-Nov-12 21:28N 38°58' E 117°46'0 0.0
2016-Nov-12 19:28N 38°58' E 117°46'0 0.0
2016-Nov-12 17:28N 38°58' E 117°46'0 0.0
2016-Nov-12 16:28N 38°58' E 117°46'0 0.0
2016-Nov-12 15:28N 38°58' E 117°46'0 0.0
2016-Nov-12 14:22N 38°58' E 117°46'0 0.0
2016-Nov-12 13:10N 38°58' E 117°46'0 0.0
2016-Nov-12 12:28N 38°58' E 117°46'0 0.0
2016-Nov-12 11:33N 38°58' E 117°46'10 5.0
2016-Nov-12 09:32N 38°57' E 117°59'5 0.7
2016-Nov-12 02:25N 38°54' E 118°05'0 0.0
2016-Nov-12 00:25N 38°54' E 118°05'0 0.0
2016-Nov-11 23:19N 38°54' E 118°05'0 0.0
2016-Nov-11 10:07N 38°54' E 118°05'0 0.0
2016-Nov-11 09:25N 38°54' E 118°05'2 0.1
2016-Nov-10 06:17N 38°55' E 118°02'0 0.1
2016-Nov-10 05:29N 38°55' E 118°02'0 0.0
2016-Nov-09 08:05N 38°55' E 118°02'0 0.0
2016-Nov-09 05:29N 38°55' E 118°02'0 0.0
2016-Nov-09 04:29N 38°55' E 118°02'0 0.0
2016-Nov-09 02:29N 38°55' E 118°02'0 0.0
2016-Nov-08 23:17N 38°55' E 118°02'0 0.0
2016-Nov-08 22:23N 38°55' E 118°02'0 0.0
2016-Nov-08 17:23N 38°55' E 118°02'0 0.0
2016-Nov-07 19:29N 38°55' E 118°02'0 0.0
2016-Nov-07 17:29N 38°55' E 118°02'0 0.0
2016-Nov-07 16:23N 38°55' E 118°02'0 0.0
2016-Nov-07 05:05N 38°55' E 118°02'0 0.0
2016-Nov-06 07:14N 38°55' E 118°02'14 1.8
2016-Nov-05 23:30N 38°59' E 117°45'0 0.0
2016-Nov-05 20:42N 38°59' E 117°45'0 0.0
2016-Nov-05 20:30N 38°59' E 117°45'0 0.0
2016-Nov-05 16:06N 38°59' E 117°45'0 0.0
2016-Nov-05 12:24N 38°59' E 117°45'0 0.0
2016-Nov-05 11:30N 38°59' E 117°45'0 0.0
2016-Nov-05 10:24N 38°59' E 117°45'0 0.0
2016-Nov-05 09:30N 38°59' E 117°45'0 0.0
2016-Nov-05 08:30N 38°59' E 117°45'0 0.0
2016-Nov-05 07:24N 38°59' E 117°45'0 0.0
2016-Nov-05 04:30N 38°59' E 117°45'0 0.0
2016-Nov-05 02:24N 38°59' E 117°45'0 0.0
2016-Nov-05 01:30N 38°59' E 117°45'0 0.0
2016-Nov-04 23:18N 38°59' E 117°45'0 0.0
2016-Nov-04 22:30N 38°59' E 117°45'0 0.0
2016-Nov-04 21:24N 38°59' E 117°45'0 0.0
2016-Nov-04 20:30N 38°59' E 117°45'0 0.0
2016-Nov-04 18:30N 38°59' E 117°45'0 0.0
2016-Nov-04 16:30N 38°59' E 117°45'0 0.0
2016-Nov-04 14:30N 38°59' E 117°45'0 0.0
2016-Nov-04 12:18N 38°59' E 117°45'0 0.0
2016-Nov-04 08:30N 38°59' E 117°45'0 0.0
2016-Nov-04 07:30N 38°59' E 117°45'0 0.0
2016-Nov-04 06:30N 38°59' E 117°45'  

Dump ship's entire track history